sensor_id;sensor_type;location;lat;lon;timestamp;pressure;altitude;pressure_sealevel;temperature;humidity
63194;BME280;49289;51.670;5.624;2022-08-19T00:01:07;101464.75;;;24.03;61.45
63194;BME280;49289;51.670;5.624;2022-08-19T00:02:40;101469.34;;;24.00;61.52
63194;BME280;49289;51.670;5.624;2022-08-19T00:04:29;101446.58;;;23.94;61.28
63194;BME280;49289;51.670;5.624;2022-08-19T00:06:14;101446.24;;;23.93;61.36
63194;BME280;49289;51.670;5.624;2022-08-19T00:08:01;101466.34;;;23.97;61.38
63194;BME280;49289;51.670;5.624;2022-08-19T00:09:33;101455.00;;;23.85;61.67
63194;BME280;49289;51.670;5.624;2022-08-19T00:11:24;101469.23;;;23.88;61.85
63194;BME280;49289;51.670;5.624;2022-08-19T00:13:16;101473.18;;;23.88;61.92
63194;BME280;49289;51.670;5.624;2022-08-19T00:15:05;101469.05;;;23.92;61.66
63194;BME280;49289;51.670;5.624;2022-08-19T00:16:53;101464.28;;;23.89;61.57
63194;BME280;49289;51.670;5.624;2022-08-19T00:18:40;101465.22;;;23.88;61.43
63194;BME280;49289;51.670;5.624;2022-08-19T00:20:29;101467.66;;;23.85;61.45
63194;BME280;49289;51.670;5.624;2022-08-19T00:22:02;101467.82;;;23.86;61.45
63194;BME280;49289;51.670;5.624;2022-08-19T00:23:49;101466.22;;;23.82;61.43
63194;BME280;49289;51.670;5.624;2022-08-19T00:25:36;101468.32;;;23.80;61.44
63194;BME280;49289;51.670;5.624;2022-08-19T00:27:23;101470.08;;;23.80;61.28
63194;BME280;49289;51.670;5.624;2022-08-19T00:29:14;101471.92;;;23.79;61.13
63194;BME280;49289;51.670;5.624;2022-08-19T00:31:00;101471.37;;;23.73;61.34
63194;BME280;49289;51.670;5.624;2022-08-19T00:32:47;101471.13;;;23.70;61.44
63194;BME280;49289;51.670;5.624;2022-08-19T00:34:29;101473.47;;;23.70;61.35
63194;BME280;49289;51.670;5.624;2022-08-19T00:36:04;101471.56;;;23.67;61.38
63194;BME280;49289;51.670;5.624;2022-08-19T00:37:53;101472.06;;;23.66;61.43
63194;BME280;49289;51.670;5.624;2022-08-19T00:39:41;101476.83;;;23.62;61.51
63194;BME280;49289;51.670;5.624;2022-08-19T00:41:29;101482.53;;;23.59;61.51
63194;BME280;49289;51.670;5.624;2022-08-19T00:43:21;101480.59;;;23.56;61.56
63194;BME280;49289;51.670;5.624;2022-08-19T00:44:52;101481.95;;;23.58;61.56
63194;BME280;49289;51.670;5.624;2022-08-19T00:46:41;101482.87;;;23.59;61.55
63194;BME280;49289;51.670;5.624;2022-08-19T00:48:14;101483.88;;;23.60;61.50
63194;BME280;49289;51.670;5.624;2022-08-19T00:50:06;101467.34;;;23.54;61.50
63194;BME280;49289;51.670;5.624;2022-08-19T00:51:38;101466.52;;;23.53;61.47
63194;BME280;49289;51.670;5.624;2022-08-19T00:53:26;101483.95;;;23.60;61.54
63194;BME280;49289;51.670;5.624;2022-08-19T00:55:13;101461.17;;;23.47;61.63
63194;BME280;49289;51.670;5.624;2022-08-19T00:56:46;101479.61;;;23.58;61.53
63194;BME280;49289;51.670;5.624;2022-08-19T00:58:21;101476.98;;;23.55;61.67
63194;BME280;49289;51.670;5.624;2022-08-19T01:00:11;101475.73;;;23.52;61.58
63194;BME280;49289;51.670;5.624;2022-08-19T01:01:58;101478.09;;;23.49;61.68
63194;BME280;49289;51.670;5.624;2022-08-19T01:03:46;101476.08;;;23.48;61.75
63194;BME280;49289;51.670;5.624;2022-08-19T01:05:35;101478.59;;;23.49;61.80
63194;BME280;49289;51.670;5.624;2022-08-19T01:07:23;101470.38;;;23.42;61.64
63194;BME280;49289;51.670;5.624;2022-08-19T01:09:11;101468.73;;;23.43;61.39
63194;BME280;49289;51.670;5.624;2022-08-19T01:10:44;101454.58;;;23.28;61.24
63194;BME280;49289;51.670;5.624;2022-08-19T01:12:30;101470.15;;;23.32;61.08
63194;BME280;49289;51.670;5.624;2022-08-19T01:14:17;101454.48;;;23.22;60.97
63194;BME280;49289;51.670;5.624;2022-08-19T01:15:52;101466.98;;;23.24;61.09
63194;BME280;49289;51.670;5.624;2022-08-19T01:17:24;101467.64;;;23.11;61.48
63194;BME280;49289;51.670;5.624;2022-08-19T01:18:56;101471.24;;;23.12;61.48
63194;BME280;49289;51.670;5.624;2022-08-19T01:20:28;101475.93;;;23.13;61.53
63194;BME280;49289;51.670;5.624;2022-08-19T01:22:19;101479.78;;;23.09;61.77
63194;BME280;49289;51.670;5.624;2022-08-19T01:23:52;101478.45;;;23.08;61.82
63194;BME280;49289;51.670;5.624;2022-08-19T01:25:42;101476.69;;;23.07;61.98
63194;BME280;49289;51.670;5.624;2022-08-19T01:27:28;101476.86;;;23.11;62.11
63194;BME280;49289;51.670;5.624;2022-08-19T01:29:14;101469.16;;;23.05;62.08
63194;BME280;49289;51.670;5.624;2022-08-19T01:31:02;101468.48;;;23.11;62.02
63194;BME280;49289;51.670;5.624;2022-08-19T01:32:35;101478.35;;;23.16;61.89
63194;BME280;49289;51.670;5.624;2022-08-19T01:34:24;101474.93;;;23.12;61.92
63194;BME280;49289;51.670;5.624;2022-08-19T01:35:56;101472.33;;;23.15;61.81
63194;BME280;49289;51.670;5.624;2022-08-19T01:37:28;101473.84;;;23.09;61.64
63194;BME280;49289;51.670;5.624;2022-08-19T01:39:17;101480.87;;;23.11;61.50
63194;BME280;49289;51.670;5.624;2022-08-19T01:40:50;101478.09;;;23.01;61.63
63194;BME280;49289;51.670;5.624;2022-08-19T01:42:23;101479.59;;;23.02;61.77
63194;BME280;49289;51.670;5.624;2022-08-19T01:44:11;101480.85;;;23.01;61.76
63194;BME280;49289;51.670;5.624;2022-08-19T01:45:58;101469.72;;;22.93;61.73
63194;BME280;49289;51.670;5.624;2022-08-19T01:47:46;101475.33;;;22.97;61.80
63194;BME280;49289;51.670;5.624;2022-08-19T01:49:36;101474.08;;;22.93;61.94
63194;BME280;49289;51.670;5.624;2022-08-19T01:51:10;101472.91;;;22.97;62.02
63194;BME280;49289;51.670;5.624;2022-08-19T01:52:56;101476.25;;;23.01;61.96
63194;BME280;49289;51.670;5.624;2022-08-19T01:54:28;101476.67;;;22.96;62.11
63194;BME280;49289;51.670;5.624;2022-08-19T01:56:16;101481.69;;;22.98;62.06
63194;BME280;49289;51.670;5.624;2022-08-19T01:58:04;101476.92;;;22.98;62.12
63194;BME280;49289;51.670;5.624;2022-08-19T01:59:51;101464.63;;;22.84;62.00
63194;BME280;49289;51.670;5.624;2022-08-19T02:01:38;101481.70;;;22.90;62.00
63194;BME280;49289;51.670;5.624;2022-08-19T02:03:25;101484.95;;;22.94;61.85
63194;BME280;49289;51.670;5.624;2022-08-19T02:04:57;101485.63;;;22.93;61.91
63194;BME280;49289;51.670;5.624;2022-08-19T02:06:45;101485.88;;;22.86;62.07
63194;BME280;49289;51.670;5.624;2022-08-19T02:08:35;101483.79;;;22.89;62.21
63194;BME280;49289;51.670;5.624;2022-08-19T02:10:22;101488.50;;;22.81;62.74
63194;BME280;49289;51.670;5.624;2022-08-19T02:12:09;101487.47;;;22.85;62.61
63194;BME280;49289;51.670;5.624;2022-08-19T02:13:41;101487.64;;;22.90;62.65
63194;BME280;49289;51.670;5.624;2022-08-19T02:15:29;101490.23;;;22.89;62.60
63194;BME280;49289;51.670;5.624;2022-08-19T02:17:03;101494.84;;;22.91;62.63
63194;BME280;49289;51.670;5.624;2022-08-19T02:18:36;101497.69;;;22.88;63.19
63194;BME280;49289;51.670;5.624;2022-08-19T02:20:23;101498.94;;;22.89;62.94
63194;BME280;49289;51.670;5.624;2022-08-19T02:22:12;101501.28;;;22.85;62.86
63194;BME280;49289;51.670;5.624;2022-08-19T02:23:44;101502.03;;;22.85;62.63
63194;BME280;49289;51.670;5.624;2022-08-19T02:25:31;101498.61;;;22.86;62.58
63194;BME280;49289;51.670;5.624;2022-08-19T02:27:19;101478.28;;;22.78;62.72
63194;BME280;49289;51.670;5.624;2022-08-19T02:29:08;101489.25;;;22.78;62.88
63194;BME280;49289;51.670;5.624;2022-08-19T02:30:56;101488.33;;;22.81;62.86
63194;BME280;49289;51.670;5.624;2022-08-19T02:32:44;101487.50;;;22.81;62.63
63194;BME280;49289;51.670;5.624;2022-08-19T02:34:32;101496.03;;;22.77;62.81
63194;BME280;49289;51.670;5.624;2022-08-19T02:36:04;101481.30;;;22.68;62.84
63194;BME280;49289;51.670;5.624;2022-08-19T02:37:51;101494.11;;;22.81;62.67
63194;BME280;49289;51.670;5.624;2022-08-19T02:39:38;101497.45;;;22.79;62.74
63194;BME280;49289;51.670;5.624;2022-08-19T02:41:13;101496.59;;;22.85;62.93
63194;BME280;49289;51.670;5.624;2022-08-19T02:43:00;101486.16;;;22.79;62.70
63194;BME280;49289;51.670;5.624;2022-08-19T02:44:33;101501.84;;;22.82;62.71
63194;BME280;49289;51.670;5.624;2022-08-19T02:46:25;101499.02;;;22.86;62.63
63194;BME280;49289;51.670;5.624;2022-08-19T02:47:56;101506.91;;;22.79;62.74
63194;BME280;49289;51.670;5.624;2022-08-19T02:49:46;101504.14;;;22.77;62.51
63194;BME280;49289;51.670;5.624;2022-08-19T02:51:35;101507.73;;;22.73;62.42
63194;BME280;49289;51.670;5.624;2022-08-19T02:53:20;101514.27;;;22.71;62.32
63194;BME280;49289;51.670;5.624;2022-08-19T02:54:53;101510.75;;;22.68;62.29
63194;BME280;49289;51.670;5.624;2022-08-19T02:56:27;101514.77;;;22.67;62.22
63194;BME280;49289;51.670;5.624;2022-08-19T02:57:59;101512.34;;;22.64;62.44
63194;BME280;49289;51.670;5.624;2022-08-19T02:59:46;101496.72;;;22.48;62.23
63194;BME280;49289;51.670;5.624;2022-08-19T03:01:34;101508.77;;;22.51;62.71
63194;BME280;49289;51.670;5.624;2022-08-19T03:03:21;101496.30;;;22.48;62.69
63194;BME280;49289;51.670;5.624;2022-08-19T03:05:09;101511.16;;;22.63;62.85
63194;BME280;49289;51.670;5.624;2022-08-19T03:06:55;101512.05;;;22.61;63.02
63194;BME280;49289;51.670;5.624;2022-08-19T03:08:27;101511.34;;;22.68;63.10
63194;BME280;49289;51.670;5.624;2022-08-19T03:10:14;101492.59;;;22.63;63.06
63194;BME280;49289;51.670;5.624;2022-08-19T03:12:03;101510.08;;;22.71;62.93
63194;BME280;49289;51.670;5.624;2022-08-19T03:13:36;101509.75;;;22.70;62.83
63194;BME280;49289;51.670;5.624;2022-08-19T03:15:11;101504.73;;;22.67;62.80
63194;BME280;49289;51.670;5.624;2022-08-19T03:16:58;101506.23;;;22.68;62.55
63194;BME280;49289;51.670;5.624;2022-08-19T03:18:46;101495.39;;;22.58;62.50
63194;BME280;49289;51.670;5.624;2022-08-19T03:20:20;101511.63;;;22.58;62.51
63194;BME280;49289;51.670;5.624;2022-08-19T03:21:53;101510.86;;;22.53;62.45
63194;BME280;49289;51.670;5.624;2022-08-19T03:23:27;101509.78;;;22.53;62.44
63194;BME280;49289;51.670;5.624;2022-08-19T03:24:59;101511.79;;;22.55;62.56
63194;BME280;49289;51.670;5.624;2022-08-19T03:26:47;101502.03;;;22.42;62.72
63194;BME280;49289;51.670;5.624;2022-08-19T03:28:33;101517.63;;;22.48;62.84
63194;BME280;49289;51.670;5.624;2022-08-19T03:30:23;101519.97;;;22.45;62.94
63194;BME280;49289;51.670;5.624;2022-08-19T03:32:11;101502.10;;;22.34;63.05
63194;BME280;49289;51.670;5.624;2022-08-19T03:33:43;101499.19;;;22.39;62.89
63194;BME280;49289;51.670;5.624;2022-08-19T03:35:31;101513.95;;;22.49;62.68
63194;BME280;49289;51.670;5.624;2022-08-19T03:37:21;101513.20;;;22.46;62.58
63194;BME280;49289;51.670;5.624;2022-08-19T03:39:09;101517.87;;;22.46;62.53
63194;BME280;49289;51.670;5.624;2022-08-19T03:40:41;101504.77;;;22.29;62.77
63194;BME280;49289;51.670;5.624;2022-08-19T03:42:29;101515.91;;;22.39;62.66
63194;BME280;49289;51.670;5.624;2022-08-19T03:44:20;101512.14;;;22.36;62.56
63194;BME280;49289;51.670;5.624;2022-08-19T03:46:13;101512.63;;;22.29;62.87
63194;BME280;49289;51.670;5.624;2022-08-19T03:48:00;101510.95;;;22.28;63.04
63194;BME280;49289;51.670;5.624;2022-08-19T03:49:47;101509.38;;;22.37;63.02
63194;BME280;49289;51.670;5.624;2022-08-19T03:51:35;101486.12;;;22.28;62.97
63194;BME280;49289;51.670;5.624;2022-08-19T03:53:06;101503.12;;;22.40;62.97
63194;BME280;49289;51.670;5.624;2022-08-19T03:54:54;101502.61;;;22.36;62.70
63194;BME280;49289;51.670;5.624;2022-08-19T03:56:43;101498.75;;;22.31;62.46
63194;BME280;49289;51.670;5.624;2022-08-19T03:58:32;101492.88;;;22.24;62.61
63194;BME280;49289;51.670;5.624;2022-08-19T04:00:21;101491.42;;;22.22;62.78
63194;BME280;49289;51.670;5.624;2022-08-19T04:02:09;101491.66;;;22.17;62.79
63194;BME280;49289;51.670;5.624;2022-08-19T04:03:56;101492.66;;;22.15;62.88
63194;BME280;49289;51.670;5.624;2022-08-19T04:05:42;101505.05;;;22.20;62.82
63194;BME280;49289;51.670;5.624;2022-08-19T04:07:29;101508.81;;;22.21;63.01
63194;BME280;49289;51.670;5.624;2022-08-19T04:09:04;101515.05;;;22.13;63.13
63194;BME280;49289;51.670;5.624;2022-08-19T04:10:51;101520.06;;;22.11;62.89
63194;BME280;49289;51.670;5.624;2022-08-19T04:12:23;101527.73;;;22.02;63.34
63194;BME280;49289;51.670;5.624;2022-08-19T04:14:11;101523.05;;;21.98;63.74
63194;BME280;49289;51.670;5.624;2022-08-19T04:15:45;101514.00;;;21.95;64.01
63194;BME280;49289;51.670;5.624;2022-08-19T04:17:32;101512.99;;;21.94;64.18
63194;BME280;49289;51.670;5.624;2022-08-19T04:19:05;101510.22;;;21.90;64.29
63194;BME280;49289;51.670;5.624;2022-08-19T04:20:38;101507.16;;;21.96;64.12
63194;BME280;49289;51.670;5.624;2022-08-19T04:22:26;101509.76;;;21.99;64.02
63194;BME280;49289;51.670;5.624;2022-08-19T04:24:13;101509.05;;;22.03;63.98
63194;BME280;49289;51.670;5.624;2022-08-19T04:26:00;101510.60;;;22.01;64.01
63194;BME280;49289;51.670;5.624;2022-08-19T04:27:32;101511.69;;;22.02;64.06
63194;BME280;49289;51.670;5.624;2022-08-19T04:29:21;101501.50;;;22.02;64.03
63194;BME280;49289;51.670;5.624;2022-08-19T04:30:53;101498.16;;;22.09;63.93
63194;BME280;49289;51.670;5.624;2022-08-19T04:32:42;101491.97;;;22.11;63.94
63194;BME280;49289;51.670;5.624;2022-08-19T04:34:16;101493.74;;;22.15;64.01
63194;BME280;49289;51.670;5.624;2022-08-19T04:36:03;101493.33;;;22.15;64.07
63194;BME280;49289;51.670;5.624;2022-08-19T04:37:52;101490.48;;;22.16;63.86
63194;BME280;49289;51.670;5.624;2022-08-19T04:39:26;101492.63;;;22.09;63.63
63194;BME280;49289;51.670;5.624;2022-08-19T04:40:57;101490.97;;;22.09;63.72
63194;BME280;49289;51.670;5.624;2022-08-19T04:42:44;101490.72;;;22.12;63.65
63194;BME280;49289;51.670;5.624;2022-08-19T04:44:31;101491.90;;;22.12;63.75
63194;BME280;49289;51.670;5.624;2022-08-19T04:46:20;101495.50;;;22.17;63.56
63194;BME280;49289;51.670;5.624;2022-08-19T04:48:07;101500.84;;;22.11;63.58
63194;BME280;49289;51.670;5.624;2022-08-19T04:49:55;101502.76;;;22.11;63.63
63194;BME280;49289;51.670;5.624;2022-08-19T04:51:44;101503.52;;;22.14;63.57
63194;BME280;49289;51.670;5.624;2022-08-19T04:53:16;101506.69;;;22.13;63.72
63194;BME280;49289;51.670;5.624;2022-08-19T04:55:05;101506.02;;;22.12;63.77
63194;BME280;49289;51.670;5.624;2022-08-19T04:56:52;101489.38;;;22.02;63.75
63194;BME280;49289;51.670;5.624;2022-08-19T04:58:40;101509.45;;;22.11;63.91
63194;BME280;49289;51.670;5.624;2022-08-19T05:00:26;101490.62;;;22.06;63.69
63194;BME280;49289;51.670;5.624;2022-08-19T05:02:14;101509.88;;;22.17;63.62
63194;BME280;49289;51.670;5.624;2022-08-19T05:03:48;101513.23;;;22.20;63.50
63194;BME280;49289;51.670;5.624;2022-08-19T05:05:37;101512.11;;;22.23;63.48
63194;BME280;49289;51.670;5.624;2022-08-19T05:07:08;101518.00;;;22.21;63.64
63194;BME280;49289;51.670;5.624;2022-08-19T05:08:55;101517.25;;;22.20;63.66
63194;BME280;49289;51.670;5.624;2022-08-19T05:10:42;101512.41;;;22.21;63.71
63194;BME280;49289;51.670;5.624;2022-08-19T05:12:16;101516.34;;;22.22;63.80
63194;BME280;49289;51.670;5.624;2022-08-19T05:13:48;101515.16;;;22.20;63.72
63194;BME280;49289;51.670;5.624;2022-08-19T05:15:35;101520.67;;;22.17;63.75
63194;BME280;49289;51.670;5.624;2022-08-19T05:17:22;101526.27;;;22.18;63.84
63194;BME280;49289;51.670;5.624;2022-08-19T05:19:09;101526.50;;;22.25;64.05
63194;BME280;49289;51.670;5.624;2022-08-19T05:20:59;101527.54;;;22.22;64.22
63194;BME280;49289;51.670;5.624;2022-08-19T05:22:46;101529.33;;;22.23;64.56
63194;BME280;49289;51.670;5.624;2022-08-19T05:24:18;101524.08;;;22.30;64.48
63194;BME280;49289;51.670;5.624;2022-08-19T05:26:05;101526.94;;;22.35;64.53
63194;BME280;49289;51.670;5.624;2022-08-19T05:27:52;101526.28;;;22.41;64.84
63194;BME280;49289;51.670;5.624;2022-08-19T05:29:26;101524.61;;;22.40;65.33
63194;BME280;49289;51.670;5.624;2022-08-19T05:31:13;101527.99;;;22.43;65.55
63194;BME280;49289;51.670;5.624;2022-08-19T05:33:01;101532.41;;;22.63;65.57
63194;BME280;49289;51.670;5.624;2022-08-19T05:34:35;101535.60;;;22.69;65.68
63194;BME280;49289;51.670;5.624;2022-08-19T05:36:08;101535.70;;;22.79;65.77
63194;BME280;49289;51.670;5.624;2022-08-19T05:37:55;101537.36;;;22.86;65.81
63194;BME280;49289;51.670;5.624;2022-08-19T05:39:45;101535.02;;;22.85;65.84
63194;BME280;49289;51.670;5.624;2022-08-19T05:41:32;101543.72;;;22.85;66.31
63194;BME280;49289;51.670;5.624;2022-08-19T05:43:19;101542.46;;;22.91;66.14
63194;BME280;49289;51.670;5.624;2022-08-19T05:44:51;101549.91;;;22.94;66.31
63194;BME280;49289;51.670;5.624;2022-08-19T05:46:39;101548.78;;;23.03;66.07
63194;BME280;49289;51.670;5.624;2022-08-19T05:48:28;101547.27;;;22.58;67.06
63194;BME280;49289;51.670;5.624;2022-08-19T05:50:16;101551.69;;;22.54;67.47
63194;BME280;49289;51.670;5.624;2022-08-19T05:51:49;101551.09;;;22.76;66.99
63194;BME280;49289;51.670;5.624;2022-08-19T05:53:23;101551.08;;;22.65;67.06
63194;BME280;49289;51.670;5.624;2022-08-19T05:55:12;101547.48;;;22.68;67.12
63194;BME280;49289;51.670;5.624;2022-08-19T05:57:00;101544.23;;;22.76;66.65
63194;BME280;49289;51.670;5.624;2022-08-19T05:58:48;101532.66;;;22.63;66.95
63194;BME280;49289;51.670;5.624;2022-08-19T06:00:21;101541.97;;;22.75;66.75
63194;BME280;49289;51.670;5.624;2022-08-19T06:02:11;101541.56;;;22.30;67.77
63194;BME280;49289;51.670;5.624;2022-08-19T06:03:43;101542.59;;;22.41;67.72
63194;BME280;49289;51.670;5.624;2022-08-19T06:05:31;101538.41;;;22.22;68.30
63194;BME280;49289;51.670;5.624;2022-08-19T06:07:19;101543.80;;;22.10;68.80
63194;BME280;49289;51.670;5.624;2022-08-19T06:09:07;101537.72;;;22.53;67.52
63194;BME280;49289;51.670;5.624;2022-08-19T06:10:42;101546.83;;;22.17;68.35
63194;BME280;49289;51.670;5.624;2022-08-19T06:12:15;101546.72;;;22.09;68.73
63194;BME280;49289;51.670;5.624;2022-08-19T06:14:04;101540.88;;;22.24;68.41
63194;BME280;49289;51.670;5.624;2022-08-19T06:15:54;101536.11;;;22.76;67.00
63194;BME280;49289;51.670;5.624;2022-08-19T06:17:41;101534.56;;;22.39;67.45
63194;BME280;49289;51.670;5.624;2022-08-19T06:19:30;101541.98;;;22.32;68.21
63194;BME280;49289;51.670;5.624;2022-08-19T06:21:03;101543.28;;;22.01;69.30
63194;BME280;49289;51.670;5.624;2022-08-19T06:22:51;101544.63;;;22.10;68.95
63194;BME280;49289;51.670;5.624;2022-08-19T06:24:38;101545.65;;;22.27;68.57
63194;BME280;49289;51.670;5.624;2022-08-19T06:26:26;101550.78;;;22.37;68.63
63194;BME280;49289;51.670;5.624;2022-08-19T06:28:14;101544.64;;;22.71;67.59
63194;BME280;49289;51.670;5.624;2022-08-19T06:30:01;101550.99;;;22.26;68.65
63194;BME280;49289;51.670;5.624;2022-08-19T06:31:35;101540.72;;;22.45;68.08
63194;BME280;49289;51.670;5.624;2022-08-19T06:33:23;101542.22;;;22.78;67.11
63194;BME280;49289;51.670;5.624;2022-08-19T06:35:11;101550.94;;;21.94;69.23
63194;BME280;49289;51.670;5.624;2022-08-19T06:37:00;101536.55;;;22.54;67.92
63194;BME280;49289;51.670;5.624;2022-08-19T06:38:48;101542.81;;;22.16;68.97
63194;BME280;49289;51.670;5.624;2022-08-19T06:40:36;101532.45;;;22.51;68.06
63194;BME280;49289;51.670;5.624;2022-08-19T06:42:09;101531.67;;;22.77;67.11
63194;BME280;49289;51.670;5.624;2022-08-19T06:43:56;101530.42;;;22.77;67.15
63194;BME280;49289;51.670;5.624;2022-08-19T06:45:28;101530.00;;;22.74;67.22
63194;BME280;49289;51.670;5.624;2022-08-19T06:47:19;101531.16;;;22.97;66.59
63194;BME280;49289;51.670;5.624;2022-08-19T06:48:50;101527.98;;;22.95;66.37
63194;BME280;49289;51.670;5.624;2022-08-19T06:50:38;101533.52;;;22.81;66.97
63194;BME280;49289;51.670;5.624;2022-08-19T06:52:12;101545.69;;;22.40;68.50
63194;BME280;49289;51.670;5.624;2022-08-19T06:53:59;101544.42;;;22.37;68.98
63194;BME280;49289;51.670;5.624;2022-08-19T06:55:33;101538.80;;;22.50;68.82
63194;BME280;49289;51.670;5.624;2022-08-19T06:57:20;101540.20;;;22.66;68.01
63194;BME280;49289;51.670;5.624;2022-08-19T06:59:08;101542.66;;;22.58;68.69
63194;BME280;49289;51.670;5.624;2022-08-19T07:00:54;101543.13;;;22.85;67.94
63194;BME280;49289;51.670;5.624;2022-08-19T07:02:43;101536.44;;;22.90;67.50
63194;BME280;49289;51.670;5.624;2022-08-19T07:04:31;101547.00;;;22.32;69.71
63194;BME280;49289;51.670;5.624;2022-08-19T07:06:09;101541.38;;;22.46;69.50
63194;BME280;49289;51.670;5.624;2022-08-19T07:07:55;101548.44;;;22.59;69.42
63194;BME280;49289;51.670;5.624;2022-08-19T07:09:44;101547.43;;;22.57;69.38
63194;BME280;49289;51.670;5.624;2022-08-19T07:11:32;101544.00;;;22.57;69.34
63194;BME280;49289;51.670;5.624;2022-08-19T07:13:20;101529.41;;;22.94;68.25
63194;BME280;49289;51.670;5.624;2022-08-19T07:15:07;101544.59;;;23.09;67.50
63194;BME280;49289;51.670;5.624;2022-08-19T07:16:39;101545.20;;;23.25;67.15
63194;BME280;49289;51.670;5.624;2022-08-19T07:18:26;101540.83;;;23.38;66.36
63194;BME280;49289;51.670;5.624;2022-08-19T07:20:16;101547.12;;;23.29;66.70
63194;BME280;49289;51.670;5.624;2022-08-19T07:22:04;101554.58;;;23.48;66.36
63194;BME280;49289;51.670;5.624;2022-08-19T07:23:52;101554.67;;;23.46;66.40
63194;BME280;49289;51.670;5.624;2022-08-19T07:25:25;101528.06;;;22.99;67.05
63194;BME280;49289;51.670;5.624;2022-08-19T07:27:13;101554.67;;;23.44;66.54
63194;BME280;49289;51.670;5.624;2022-08-19T07:29:01;101558.61;;;22.85;68.35
63194;BME280;49289;51.670;5.624;2022-08-19T07:30:49;101556.20;;;22.31;69.77
63194;BME280;49289;51.670;5.624;2022-08-19T07:32:21;101555.78;;;22.16;70.47
63194;BME280;49289;51.670;5.624;2022-08-19T07:34:09;101563.88;;;22.68;69.88
63194;BME280;49289;51.670;5.624;2022-08-19T07:35:40;101560.80;;;22.52;70.00
63194;BME280;49289;51.670;5.624;2022-08-19T07:37:27;101559.29;;;22.94;68.72
63194;BME280;49289;51.670;5.624;2022-08-19T07:39:16;101550.19;;;22.54;69.70
63194;BME280;49289;51.670;5.624;2022-08-19T07:41:04;101551.04;;;23.10;68.28
63194;BME280;49289;51.670;5.624;2022-08-19T07:42:52;101548.22;;;23.47;67.16
63194;BME280;49289;51.670;5.624;2022-08-19T07:44:40;101565.44;;;23.14;67.77
63194;BME280;49289;51.670;5.624;2022-08-19T07:46:13;101569.04;;;23.14;67.70
63194;BME280;49289;51.670;5.624;2022-08-19T07:48:00;101565.65;;;22.88;68.40
63194;BME280;49289;51.670;5.624;2022-08-19T07:49:32;101570.39;;;23.39;67.22
63194;BME280;49289;51.670;5.624;2022-08-19T07:51:20;101570.97;;;23.11;67.71
63194;BME280;49289;51.670;5.624;2022-08-19T07:52:52;101561.22;;;22.96;68.24
63194;BME280;49289;51.670;5.624;2022-08-19T07:54:42;101572.55;;;23.11;68.22
63194;BME280;49289;51.670;5.624;2022-08-19T07:56:31;101572.16;;;23.30;67.84
63194;BME280;49289;51.670;5.624;2022-08-19T07:58:19;101582.47;;;22.86;68.82
63194;BME280;49289;51.670;5.624;2022-08-19T08:00:07;101578.95;;;23.29;68.01
63194;BME280;49289;51.670;5.624;2022-08-19T08:01:39;101564.48;;;22.92;68.79
63194;BME280;49289;51.670;5.624;2022-08-19T08:03:13;101579.13;;;23.51;67.15
63194;BME280;49289;51.670;5.624;2022-08-19T08:05:00;101562.66;;;23.63;66.71
63194;BME280;49289;51.670;5.624;2022-08-19T08:06:49;101575.34;;;24.04;65.72
63194;BME280;49289;51.670;5.624;2022-08-19T08:08:37;101572.84;;;23.81;65.82
63194;BME280;49289;51.670;5.624;2022-08-19T08:10:26;101574.55;;;23.70;66.55
63194;BME280;49289;51.670;5.624;2022-08-19T08:12:00;101575.16;;;24.07;65.58
63194;BME280;49289;51.670;5.624;2022-08-19T08:13:46;101576.11;;;24.22;65.10
63194;BME280;49289;51.670;5.624;2022-08-19T08:15:35;101576.53;;;24.27;65.04
63194;BME280;49289;51.670;5.624;2022-08-19T08:17:23;101563.95;;;24.72;63.85
63194;BME280;49289;51.670;5.624;2022-08-19T08:19:09;101568.26;;;24.13;64.53
63194;BME280;49289;51.670;5.624;2022-08-19T08:20:57;101581.50;;;24.88;64.10
63194;BME280;49289;51.670;5.624;2022-08-19T08:22:29;101580.42;;;24.86;63.04
63194;BME280;49289;51.670;5.624;2022-08-19T08:24:18;101575.03;;;24.73;62.49
63194;BME280;49289;51.670;5.624;2022-08-19T08:26:06;101589.50;;;24.80;62.99
63194;BME280;49289;51.670;5.624;2022-08-19T08:27:41;101580.98;;;24.19;63.85
63194;BME280;49289;51.670;5.624;2022-08-19T08:29:14;101603.16;;;24.13;64.81
63194;BME280;49289;51.670;5.624;2022-08-19T08:30:48;101604.70;;;23.89;65.66
63194;BME280;49289;51.670;5.624;2022-08-19T08:32:21;101604.66;;;24.30;64.56
63194;BME280;49289;51.670;5.624;2022-08-19T08:33:54;101603.53;;;24.44;64.22
63194;BME280;49289;51.670;5.624;2022-08-19T08:35:28;101607.73;;;24.38;64.30
63194;BME280;49289;51.670;5.624;2022-08-19T08:37:15;101609.73;;;24.39;64.22
63194;BME280;49289;51.670;5.624;2022-08-19T08:39:02;101595.75;;;23.69;66.32
63194;BME280;49289;51.670;5.624;2022-08-19T08:40:53;101607.94;;;24.12;65.81
63194;BME280;49289;51.670;5.624;2022-08-19T08:42:40;101606.80;;;24.46;64.37
63194;BME280;49289;51.670;5.624;2022-08-19T08:44:13;101612.33;;;24.82;62.99
63194;BME280;49289;51.670;5.624;2022-08-19T08:46:02;101610.09;;;25.15;61.79
63194;BME280;49289;51.670;5.624;2022-08-19T08:47:49;101613.81;;;25.22;61.24
63194;BME280;49289;51.670;5.624;2022-08-19T08:49:40;101621.75;;;24.85;62.09
63194;BME280;49289;51.670;5.624;2022-08-19T08:51:14;101617.20;;;25.19;61.50
63194;BME280;49289;51.670;5.624;2022-08-19T08:52:47;101627.38;;;24.83;62.36
63194;BME280;49289;51.670;5.624;2022-08-19T08:54:37;101623.09;;;24.44;63.90
63194;BME280;49289;51.670;5.624;2022-08-19T08:56:23;101625.62;;;24.78;62.85
63194;BME280;49289;51.670;5.624;2022-08-19T08:58:13;101621.95;;;25.14;60.95
63194;BME280;49289;51.670;5.624;2022-08-19T08:59:46;101623.34;;;24.66;61.89